createdAt,value
2022-09-16T00:00:51.845Z,1.77
2022-09-16T00:03:21.490Z,1.50
2022-09-16T00:05:51.543Z,1.48
2022-09-16T00:08:19.564Z,1.50
2022-09-16T00:10:47.832Z,1.38
2022-09-16T00:13:14.938Z,1.25
2022-09-16T00:15:47.805Z,1.38
2022-09-16T00:18:14.989Z,1.20
2022-09-16T00:20:46.992Z,0.82
2022-09-16T00:23:13.779Z,1.10
2022-09-16T00:25:41.170Z,1.17
2022-09-16T00:28:08.157Z,1.27
2022-09-16T00:30:35.130Z,1.30
2022-09-16T00:33:04.367Z,1.40
2022-09-16T00:35:33.395Z,1.08
2022-09-16T00:38:00.126Z,1.40
2022-09-16T00:40:26.975Z,0.93
2022-09-16T00:42:53.752Z,1.10
2022-09-16T00:45:23.112Z,0.80
2022-09-16T00:47:58.078Z,1.38
2022-09-16T00:50:38.527Z,0.70
2022-09-16T00:53:09.308Z,0.90
2022-09-16T00:55:38.140Z,1.10
2022-09-16T00:58:30.735Z,0.88
2022-09-16T01:00:57.621Z,0.80
2022-09-16T01:03:26.093Z,0.75
2022-09-16T01:05:53.184Z,0.90
2022-09-16T01:08:19.946Z,1.15
2022-09-16T01:10:46.643Z,1.20
2022-09-16T01:13:18.709Z,1.05
2022-09-16T01:16:12.042Z,0.90
2022-09-16T01:19:09.685Z,0.75
2022-09-16T01:22:13.714Z,1.10
2022-09-16T01:25:25.501Z,1.20
2022-09-16T01:28:22.024Z,1.33
2022-09-16T01:31:16.022Z,1.40
2022-09-16T01:33:58.430Z,1.10
2022-09-16T01:36:55.610Z,0.77
2022-09-16T01:39:38.076Z,1.25
2022-09-16T01:42:32.275Z,0.90
2022-09-16T01:45:31.074Z,1.42
2022-09-16T01:48:25.429Z,1.45
2022-09-16T01:51:12.627Z,1.30
2022-09-16T01:53:50.902Z,1.30
2022-09-16T01:56:35.879Z,1.20
2022-09-16T01:59:09.396Z,1.40
2022-09-16T02:01:41.474Z,1.30
2022-09-16T02:04:17.689Z,1.65
2022-09-16T02:06:46.516Z,1.35
2022-09-16T02:09:23.268Z,1.35
2022-09-16T02:11:52.909Z,1.20
2022-09-16T02:14:27.145Z,1.27
2022-09-16T02:16:59.395Z,1.08
2022-09-16T02:19:42.151Z,1.63
2022-09-16T02:22:13.325Z,1.10
2022-09-16T02:24:42.613Z,1.67
2022-09-16T02:27:17.536Z,1.45
2022-09-16T02:29:58.087Z,1.25
2022-09-16T02:32:28.790Z,1.88
2022-09-16T02:34:56.781Z,1.30
2022-09-16T02:37:35.030Z,1.08
2022-09-16T02:40:08.879Z,1.48
2022-09-16T02:42:37.840Z,0.90
2022-09-16T02:45:05.366Z,1.05
2022-09-16T02:47:59.911Z,0.90
2022-09-16T02:50:41.958Z,1.00
2022-09-16T02:53:31.443Z,1.10
2022-09-16T02:56:05.834Z,1.20
2022-09-16T02:58:33.006Z,0.80
2022-09-16T03:01:00.575Z,0.77
2022-09-16T03:03:27.427Z,0.90
2022-09-16T03:06:09.274Z,0.82
2022-09-16T03:11:45.285Z,1.08
2022-09-16T03:14:32.426Z,1.27
2022-09-16T03:17:23.492Z,0.93
2022-09-16T03:20:14.512Z,1.03
2022-09-16T03:22:41.145Z,1.00
2022-09-16T03:25:22.996Z,1.00
2022-09-16T03:30:36.003Z,2.03
2022-09-16T03:33:09.659Z,1.80
2022-09-16T03:35:51.372Z,1.33
2022-09-16T03:38:20.177Z,1.52
2022-09-16T03:40:48.357Z,0.90
2022-09-16T03:43:17.029Z,1.20
2022-09-16T03:45:44.470Z,1.20
2022-09-16T03:48:12.803Z,1.00
2022-09-16T03:50:41.857Z,1.05
2022-09-16T03:53:09.201Z,1.27
2022-09-16T03:55:36.279Z,1.27
2022-09-16T03:58:03.283Z,1.25
2022-09-16T04:00:30.168Z,1.10
2022-09-16T04:02:59.113Z,0.95
2022-09-16T04:05:28.433Z,1.17
2022-09-16T04:07:55.871Z,1.00
2022-09-16T04:10:22.748Z,1.48
2022-09-16T04:12:56.144Z,1.25
2022-09-16T04:15:25.126Z,1.23
2022-09-16T04:17:55.119Z,1.30
2022-09-16T04:20:22.683Z,1.00
2022-09-16T04:22:49.384Z,1.50
2022-09-16T04:25:16.312Z,1.35
2022-09-16T04:27:46.048Z,1.05
2022-09-16T04:30:16.309Z,1.00
2022-09-16T04:32:45.621Z,1.17
2022-09-16T04:35:12.416Z,1.00
2022-09-16T04:37:39.097Z,1.23
2022-09-16T04:40:06.266Z,1.30
2022-09-16T04:42:33.083Z,1.40
2022-09-16T04:45:02.159Z,1.52
2022-09-16T04:47:29.435Z,1.45
2022-09-16T04:50:00.876Z,1.08
2022-09-16T04:52:30.665Z,1.50
2022-09-16T04:54:59.575Z,1.45
2022-09-16T04:57:29.644Z,1.40
2022-09-16T04:59:56.349Z,1.75
2022-09-16T05:02:23.259Z,1.30
2022-09-16T05:04:50.139Z,1.42
2022-09-16T05:07:16.812Z,1.45
2022-09-16T05:09:43.514Z,1.10
2022-09-16T05:12:12.615Z,1.75
2022-09-16T05:14:39.772Z,1.48
2022-09-16T05:17:07.374Z,1.75
2022-09-16T05:19:34.072Z,1.15
2022-09-16T05:22:02.944Z,1.58
2022-09-16T05:24:29.699Z,1.35
2022-09-16T05:26:56.626Z,2.00
2022-09-16T05:29:25.725Z,1.63
2022-09-16T05:31:52.506Z,1.10
2022-09-16T05:34:28.668Z,1.38
2022-09-16T05:36:56.259Z,1.20
2022-09-16T05:39:26.633Z,1.40
2022-09-16T05:41:59.312Z,1.70
2022-09-16T05:44:29.790Z,1.67
2022-09-16T05:46:56.827Z,1.10
2022-09-16T05:49:25.842Z,1.52
2022-09-16T05:51:53.363Z,1.30
2022-09-16T05:54:21.037Z,1.60
2022-09-16T05:56:48.398Z,1.00
2022-09-16T05:59:16.496Z,1.30
2022-09-16T06:01:43.694Z,1.60
2022-09-16T06:04:15.443Z,1.10
2022-09-16T06:09:21.080Z,1.02
2022-09-16T06:11:54.468Z,1.10
2022-09-16T06:14:23.646Z,0.90
2022-09-16T06:16:50.495Z,1.08
2022-09-16T06:19:18.830Z,1.17
2022-09-16T06:21:46.531Z,1.10
2022-09-16T06:24:15.314Z,1.00
2022-09-16T06:26:44.078Z,1.10
2022-09-16T06:29:11.472Z,0.80
2022-09-16T06:31:40.734Z,0.98
2022-09-16T06:34:10.847Z,1.00
2022-09-16T06:36:44.771Z,1.45
2022-09-16T06:39:13.554Z,1.27
2022-09-16T06:41:40.605Z,1.27
2022-09-16T06:44:07.369Z,1.23
2022-09-16T06:46:34.198Z,1.67
2022-09-16T06:49:05.338Z,1.05
2022-09-16T06:51:34.386Z,1.40
2022-09-16T06:54:06.860Z,1.80
2022-09-16T06:56:37.713Z,1.33
2022-09-16T06:59:05.263Z,1.42
2022-09-16T07:01:33.316Z,0.98
2022-09-16T07:04:05.516Z,1.20
2022-09-16T07:09:20.302Z,1.20
2022-09-16T07:11:47.093Z,1.00
2022-09-16T07:14:17.120Z,1.33
2022-09-16T07:16:48.664Z,0.80
2022-09-16T07:19:15.435Z,1.00
2022-09-16T07:21:42.205Z,1.02
2022-09-16T07:24:11.352Z,1.15
2022-09-16T07:26:39.923Z,0.95
2022-09-16T07:29:10.980Z,1.10
2022-09-16T07:31:38.224Z,1.08
2022-09-16T07:34:07.334Z,1.40
2022-09-16T07:36:37.150Z,1.20
2022-09-16T07:39:05.096Z,1.10
2022-09-16T07:41:36.893Z,1.25
2022-09-16T07:44:05.412Z,1.90
2022-09-16T07:46:34.826Z,1.55
2022-09-16T07:49:03.999Z,1.33
2022-09-16T07:51:31.442Z,1.58
2022-09-16T07:54:04.725Z,1.52
2022-09-16T07:56:34.983Z,1.38
2022-09-16T07:59:04.422Z,1.80
2022-09-16T08:01:34.399Z,1.73
2022-09-16T08:04:04.266Z,1.70
2022-09-16T08:06:33.791Z,1.60
2022-09-16T08:09:10.544Z,1.70
2022-09-16T08:11:51.508Z,1.63
2022-09-16T08:14:18.301Z,1.65
2022-09-16T08:16:45.313Z,1.50
2022-09-16T08:19:13.057Z,1.80
2022-09-16T08:21:42.285Z,1.40
2022-09-16T08:24:10.204Z,1.58
2022-09-16T08:26:42.871Z,1.20
2022-09-16T08:29:13.039Z,1.08
2022-09-16T08:31:40.038Z,1.42
2022-09-16T08:34:09.902Z,1.33
2022-09-16T08:36:37.127Z,1.25
2022-09-16T08:39:06.837Z,1.23
2022-09-16T08:41:41.579Z,1.17
2022-09-16T08:44:14.263Z,1.40
2022-09-16T08:46:58.904Z,1.63
2022-09-16T08:49:51.058Z,1.10
2022-09-16T08:52:23.908Z,1.20
2022-09-16T08:54:57.229Z,1.30
2022-09-16T08:57:28.143Z,1.30
2022-09-16T08:59:59.487Z,1.10
2022-09-16T09:02:37.545Z,1.30
2022-09-16T09:05:25.667Z,1.20
2022-09-16T09:08:10.949Z,1.35
2022-09-16T09:10:49.217Z,1.65
2022-09-16T09:13:30.937Z,1.95
2022-09-16T09:16:10.989Z,1.92
2022-09-16T09:19:20.207Z,1.52
2022-09-16T09:21:58.561Z,1.80
2022-09-16T09:25:02.938Z,1.10
2022-09-16T09:27:55.730Z,0.93
2022-09-16T09:30:27.741Z,1.05
2022-09-16T09:32:59.870Z,1.50
2022-09-16T09:36:07.869Z,1.30
2022-09-16T09:38:52.209Z,1.25
2022-09-16T09:41:30.326Z,1.35
2022-09-16T09:44:20.153Z,1.20
2022-09-16T09:46:52.393Z,1.20
2022-09-16T09:49:34.313Z,1.60
2022-09-16T09:52:18.177Z,1.25
2022-09-16T09:54:51.909Z,1.33
2022-09-16T09:57:25.322Z,1.55
2022-09-16T10:00:14.591Z,1.67
2022-09-16T10:02:48.925Z,1.10
2022-09-16T10:05:29.304Z,1.33
2022-09-16T10:07:59.361Z,1.35
2022-09-16T10:10:29.849Z,2.00
2022-09-16T10:13:10.443Z,1.45
2022-09-16T10:15:40.441Z,1.55
2022-09-16T10:18:27.101Z,1.30
2022-09-16T10:21:07.827Z,1.25
2022-09-16T10:23:36.042Z,1.02
2022-09-16T10:26:15.307Z,0.95
2022-09-16T10:28:42.337Z,1.20
2022-09-16T10:31:10.859Z,1.33
2022-09-16T10:33:44.410Z,1.02
2022-09-16T10:36:21.849Z,1.30
2022-09-16T10:39:04.467Z,1.27
2022-09-16T10:41:41.759Z,1.00
2022-09-16T10:44:30.446Z,1.10
2022-09-16T10:47:03.572Z,1.15
2022-09-16T10:49:45.679Z,0.60
2022-09-16T10:52:27.082Z,0.80
2022-09-16T10:54:55.129Z,0.95
2022-09-16T10:57:30.920Z,1.30
2022-09-16T11:00:08.909Z,0.90
2022-09-16T11:02:59.999Z,1.20
2022-09-16T11:05:58.776Z,0.90
2022-09-16T11:08:36.991Z,1.30
2022-09-16T11:11:19.538Z,1.50
2022-09-16T11:13:46.285Z,1.27
2022-09-16T11:16:44.844Z,1.08
2022-09-16T11:19:48.372Z,1.08
2022-09-16T11:22:54.558Z,1.40
2022-09-16T11:25:24.530Z,1.10
2022-09-16T11:28:20.238Z,1.30
2022-09-16T11:31:07.264Z,1.27
2022-09-16T11:33:53.285Z,1.40
2022-09-16T11:36:49.605Z,1.40
2022-09-16T11:39:34.419Z,1.70
2022-09-16T11:42:45.662Z,1.20
2022-09-16T11:45:40.430Z,1.83
2022-09-16T11:48:31.621Z,1.90
2022-09-16T11:51:16.449Z,1.63
2022-09-16T11:54:13.583Z,1.70
2022-09-16T11:57:00.663Z,1.80
2022-09-16T11:59:50.266Z,1.60
2022-09-16T12:02:30.948Z,1.63
2022-09-16T12:05:36.252Z,1.73
2022-09-16T12:08:35.626Z,1.25
2022-09-16T12:11:18.378Z,1.10
2022-09-16T12:14:05.631Z,1.15
2022-09-16T12:17:10.931Z,1.65
2022-09-16T12:20:05.427Z,1.20
2022-09-16T12:22:37.067Z,1.08
2022-09-16T12:27:47.924Z,0.95
2022-09-16T12:30:16.472Z,1.02
2022-09-16T12:33:01.327Z,1.17
2022-09-16T12:35:43.422Z,1.15
2022-09-16T12:38:17.728Z,1.00
2022-09-16T12:41:04.194Z,1.20
2022-09-16T12:44:06.393Z,0.98
2022-09-16T12:47:14.319Z,1.00
2022-09-16T12:50:16.059Z,1.02
2022-09-16T12:53:13.554Z,1.17
2022-09-16T12:56:07.802Z,1.30
2022-09-16T12:58:44.374Z,1.17
2022-09-16T13:01:23.118Z,1.48
2022-09-16T13:04:08.799Z,1.35
2022-09-16T13:06:40.033Z,1.40
2022-09-16T13:09:22.380Z,1.80
2022-09-16T13:14:56.401Z,1.45
2022-09-16T13:17:34.597Z,1.52
2022-09-16T13:20:22.397Z,1.50
2022-09-16T13:23:21.961Z,1.60
2022-09-16T13:26:09.953Z,2.15
2022-09-16T13:28:36.832Z,1.80
2022-09-16T13:31:12.573Z,1.75
2022-09-16T13:33:41.637Z,2.03
2022-09-16T13:36:20.126Z,2.10
2022-09-16T13:38:52.267Z,1.95
2022-09-16T13:41:44.249Z,2.13
2022-09-16T13:47:14.694Z,2.05
2022-09-16T13:49:53.398Z,2.45
2022-09-16T13:52:36.222Z,2.13
2022-09-16T13:55:18.890Z,1.98
2022-09-16T13:57:51.173Z,1.85
2022-09-16T14:00:45.577Z,1.98
2022-09-16T14:03:33.493Z,2.10
2022-09-16T14:06:19.059Z,2.08
2022-09-16T14:09:29.029Z,2.58
2022-09-16T14:12:04.649Z,2.63
2022-09-16T14:14:50.077Z,2.05
2022-09-16T14:17:33.256Z,1.80
2022-09-16T14:20:01.616Z,2.10
2022-09-16T14:22:31.752Z,2.28
2022-09-16T14:25:06.898Z,2.08
2022-09-16T14:27:40.169Z,1.80
2022-09-16T14:30:27.390Z,2.10
2022-09-16T14:32:54.147Z,2.15
2022-09-16T14:35:26.910Z,2.15
2022-09-16T14:38:02.088Z,1.70
2022-09-16T14:40:30.054Z,1.67
2022-09-16T14:43:00.232Z,1.83
2022-09-16T14:45:29.120Z,1.88
2022-09-16T14:47:57.989Z,1.42
2022-09-16T14:50:33.473Z,1.55
2022-09-16T14:53:06.843Z,1.48
2022-09-16T14:55:37.590Z,1.77
2022-09-16T14:58:04.566Z,2.13
2022-09-16T15:00:47.757Z,2.20
2022-09-16T15:03:53.178Z,2.10
2022-09-16T15:06:23.475Z,2.00
2022-09-16T15:09:00.273Z,2.03
2022-09-16T15:11:49.072Z,1.33
2022-09-16T15:14:17.996Z,2.47
2022-09-16T15:16:49.823Z,1.70
2022-09-16T15:19:34.066Z,1.55
2022-09-16T15:22:07.295Z,1.40
2022-09-16T15:24:35.868Z,1.92
2022-09-16T15:27:03.258Z,1.70
2022-09-16T15:29:36.716Z,1.70
2022-09-16T15:32:16.252Z,1.52
2022-09-16T15:34:46.303Z,1.38
2022-09-16T15:37:33.587Z,1.83
2022-09-16T15:40:18.598Z,1.63
2022-09-16T15:42:52.055Z,1.60
2022-09-16T15:45:22.499Z,1.30
2022-09-16T15:48:00.961Z,1.77
2022-09-16T15:50:30.634Z,1.65
2022-09-16T15:53:02.669Z,1.67
2022-09-16T15:55:54.476Z,1.83
2022-09-16T15:58:39.485Z,2.13
2022-09-16T16:01:11.806Z,1.48
2022-09-16T16:03:44.625Z,1.95
2022-09-16T16:06:14.029Z,1.60
2022-09-16T16:08:52.066Z,1.60
2022-09-16T16:11:20.697Z,1.90
2022-09-16T16:13:50.081Z,1.90
2022-09-16T16:16:19.782Z,1.85
2022-09-16T16:18:46.781Z,1.83
2022-09-16T16:21:16.030Z,2.10
2022-09-16T16:23:45.989Z,2.42
2022-09-16T16:26:15.640Z,2.45
2022-09-16T16:28:45.500Z,2.10
2022-09-16T16:31:18.222Z,2.50
2022-09-16T16:33:48.186Z,2.65
2022-09-16T16:36:16.824Z,2.30
2022-09-16T16:38:45.522Z,2.72
2022-09-16T16:41:13.517Z,3.10
2022-09-16T16:43:43.038Z,2.53
2022-09-16T16:46:12.655Z,2.42
2022-09-16T16:48:42.360Z,2.05
2022-09-16T16:51:11.498Z,2.58
2022-09-16T16:53:39.057Z,2.17
2022-09-16T16:56:14.838Z,2.47
2022-09-16T16:58:45.434Z,2.13
2022-09-16T17:01:19.242Z,2.20
2022-09-16T17:03:49.198Z,2.35
2022-09-16T17:06:17.632Z,2.70
2022-09-16T17:08:44.582Z,2.50
2022-09-16T17:11:14.987Z,2.72
2022-09-16T17:13:47.667Z,2.75
2022-09-16T17:16:18.074Z,2.38
2022-09-16T17:18:47.971Z,1.95
2022-09-16T17:21:18.130Z,2.17
2022-09-16T17:23:48.448Z,1.98
2022-09-16T17:26:16.150Z,2.75
2022-09-16T17:28:47.790Z,2.40
2022-09-16T17:33:47.112Z,2.65
2022-09-16T17:36:16.349Z,2.50
2022-09-16T17:38:43.272Z,2.53
2022-09-16T17:41:14.346Z,2.80
2022-09-16T17:43:44.151Z,1.83
2022-09-16T17:46:17.145Z,2.10
2022-09-16T17:48:49.513Z,1.58
2022-09-16T17:51:21.351Z,2.10
2022-09-16T17:53:50.608Z,2.65
2022-09-16T17:56:19.684Z,1.80
2022-09-16T17:58:50.968Z,2.20
2022-09-16T18:01:23.452Z,2.92
2022-09-16T18:03:52.070Z,2.75
2022-09-16T18:06:24.941Z,2.60
2022-09-16T18:08:56.673Z,2.65
2022-09-16T18:13:58.352Z,2.50
2022-09-16T18:16:28.959Z,2.60
2022-09-16T18:18:58.040Z,2.03
2022-09-16T18:21:25.804Z,2.08
2022-09-16T18:23:54.856Z,2.80
2022-09-16T18:26:22.128Z,2.50
2022-09-16T18:31:52.316Z,2.45
2022-09-16T18:34:19.027Z,2.50
2022-09-16T18:36:46.132Z,2.63
2022-09-16T18:39:17.294Z,3.00
2022-09-16T18:41:45.816Z,3.33
2022-09-16T18:44:21.119Z,2.55
2022-09-16T18:46:48.263Z,2.95
2022-09-16T18:49:16.426Z,2.90
2022-09-16T18:51:51.650Z,2.58
2022-09-16T18:54:30.696Z,3.42
2022-09-16T18:56:59.226Z,2.97
2022-09-16T18:59:30.273Z,3.75
2022-09-16T19:02:03.331Z,3.70
2022-09-16T19:04:37.141Z,3.03
2022-09-16T19:07:08.669Z,3.50
2022-09-16T19:09:39.893Z,3.95
2022-09-16T19:12:11.103Z,3.15
2022-09-16T19:14:38.816Z,3.40
2022-09-16T19:17:05.994Z,3.40
2022-09-16T19:19:35.390Z,3.10
2022-09-16T19:22:05.671Z,3.30
2022-09-16T19:24:37.180Z,3.65
2022-09-16T19:27:04.058Z,3.45
2022-09-16T19:29:32.605Z,3.97
2022-09-16T19:31:59.398Z,2.83
2022-09-16T19:34:26.181Z,3.58
2022-09-16T19:36:55.802Z,2.67
2022-09-16T19:39:24.685Z,3.08
2022-09-16T19:41:51.453Z,3.20
2022-09-16T19:44:18.619Z,2.65
2022-09-16T19:46:49.858Z,2.78
2022-09-16T19:49:22.993Z,2.75
2022-09-16T19:51:52.513Z,2.42
2022-09-16T19:54:24.065Z,2.83
2022-09-16T19:59:21.077Z,2.47
2022-09-16T20:01:48.091Z,2.53
2022-09-16T20:04:21.103Z,2.63
2022-09-16T20:06:48.988Z,2.95
2022-09-16T20:09:17.081Z,2.25
2022-09-16T20:11:46.494Z,2.47
2022-09-16T20:14:16.253Z,2.58
2022-09-16T20:16:45.878Z,2.17
2022-09-16T20:19:14.835Z,2.13
2022-09-16T20:21:44.915Z,1.95
2022-09-16T20:24:18.355Z,2.10
2022-09-16T20:26:49.842Z,2.00
2022-09-16T20:29:18.030Z,2.63
2022-09-16T20:31:48.324Z,2.20
2022-09-16T20:34:16.261Z,2.35
2022-09-16T20:36:44.314Z,1.90
2022-09-16T20:39:11.914Z,1.70
2022-09-16T20:41:39.775Z,1.90
2022-09-16T20:44:07.431Z,2.10
2022-09-16T20:46:38.849Z,1.92
2022-09-16T20:49:09.388Z,2.35
2022-09-16T20:51:36.846Z,2.35
2022-09-16T20:54:08.501Z,1.98
2022-09-16T20:56:40.603Z,1.98
2022-09-16T20:59:09.125Z,1.70
2022-09-16T21:01:37.340Z,2.38
2022-09-16T21:04:11.225Z,1.80
2022-09-16T21:06:38.507Z,1.67
2022-09-16T21:09:10.589Z,2.22
2022-09-16T21:11:40.794Z,1.92
2022-09-16T21:14:07.769Z,1.85
2022-09-16T21:16:37.369Z,1.70
2022-09-16T21:19:09.263Z,1.80
2022-09-16T21:21:38.358Z,1.40
2022-09-16T21:24:07.058Z,1.58
2022-09-16T21:26:35.745Z,1.60
2022-09-16T21:29:11.001Z,1.40
2022-09-16T21:31:40.611Z,1.77
2022-09-16T21:34:15.531Z,1.63
2022-09-16T21:36:44.476Z,2.03
2022-09-16T21:39:15.544Z,2.08
2022-09-16T21:41:44.312Z,1.67
2022-09-16T21:44:11.728Z,1.70
2022-09-16T21:46:43.126Z,2.20
2022-09-16T21:49:19.137Z,2.28
2022-09-16T21:51:46.059Z,1.80
2022-09-16T21:54:19.674Z,2.17
2022-09-16T21:56:50.262Z,2.47
2022-09-16T21:59:19.703Z,2.25
2022-09-16T22:01:46.939Z,3.00
2022-09-16T22:04:17.284Z,2.75
2022-09-16T22:06:44.726Z,2.88
2022-09-16T22:09:16.369Z,2.38
2022-09-16T22:11:43.062Z,2.80
2022-09-16T22:14:11.260Z,2.63
2022-09-16T22:16:39.298Z,2.40
2022-09-16T22:19:17.189Z,2.90
2022-09-16T22:21:45.926Z,2.40
2022-09-16T22:24:20.795Z,2.58
2022-09-16T22:26:49.362Z,2.28
2022-09-16T22:29:20.722Z,1.88
2022-09-16T22:31:47.596Z,2.53
2022-09-16T22:34:14.537Z,2.55
2022-09-16T22:36:41.564Z,2.88
2022-09-16T22:39:14.307Z,2.33
2022-09-16T22:41:41.677Z,2.22
2022-09-16T22:44:08.464Z,2.65
2022-09-16T22:46:43.473Z,2.50
2022-09-16T22:49:10.996Z,2.65
2022-09-16T22:51:38.148Z,2.20
2022-09-16T22:54:08.504Z,1.80
2022-09-16T22:56:35.692Z,2.05
2022-09-16T22:59:05.483Z,2.60
2022-09-16T23:01:38.684Z,2.10
2022-09-16T23:04:10.197Z,1.52
2022-09-16T23:06:38.822Z,2.28
2022-09-16T23:09:07.196Z,2.22
2022-09-16T23:11:35.258Z,1.92
2022-09-16T23:14:02.481Z,1.92
2022-09-16T23:16:32.826Z,1.98
2022-09-16T23:19:03.465Z,2.08
2022-09-16T23:21:33.012Z,1.77
2022-09-16T23:24:02.001Z,1.70
2022-09-16T23:26:35.018Z,1.80
2022-09-16T23:29:03.691Z,1.98
2022-09-16T23:31:35.612Z,2.17
2022-09-16T23:34:07.551Z,1.67
2022-09-16T23:36:39.149Z,1.63
2022-09-16T23:39:09.293Z,1.10
2022-09-16T23:41:36.478Z,1.00
2022-09-16T23:44:05.846Z,1.10
2022-09-16T23:46:35.378Z,1.10
2022-09-16T23:49:04.652Z,1.30
2022-09-16T23:51:33.757Z,1.50
2022-09-16T23:54:01.288Z,1.95
2022-09-16T23:56:28.419Z,1.48
2022-09-16T23:58:58.501Z,1.80
